Flight Track Log - Related Links

Times and Time Zones

All times are in EDT time to prevent confusion due to time zone crossing. See the VH-JXC flight status page for this flight to view local times or setup timezone preferences in your user account.

Time Position Orientation Groundspeed Altitude Reporting Facility
EDT Latitude Longitude Course Direction KTS MPH feet Rate Location/Type
Fri 07:55:14 PM -31.9402 115.9669 311° West 1,500  Level Aus ATC (Calculated)
Fri 07:55:41 PM -31.9393 115.9657 10° North 74 85 600 -484 Descending Aus ATC (RADAR)
Fri 07:56:16 PM -31.9277 115.9681 10° North 74 85 1,000 450 Climbing Aus ATC (RADAR)
Fri 07:57:01 PM -31.9181 115.9462 297° West 119 137 1,200 300 Climbing Aus ATC (RADAR)
Fri 07:57:36 PM -31.9151 115.9193 277° West 134 154 1,400 255 Climbing Aus ATC (RADAR)
Fri 07:58:35 PM -31.9113 115.8752 276° West 137 158 1,600 67 Climbing Aus ATC (RADAR)
Fri 07:59:05 PM -31.9088 115.8506 277° West 147 169 1,500  Descending Aus ATC (RADAR)
Fri 07:59:40 PM -31.9051 115.8217 279° West 148 170 1,600 80 Climbing Aus ATC (RADAR)
Fri 08:00:20 PM -31.9002 115.7891 280° West 148 170 1,600  Level Aus ATC (RADAR)
Fri 08:00:55 PM -31.8957 115.7603 281° West 149 171 1,600  Level Aus ATC (RADAR)
Fri 08:01:30 PM -31.9141 115.7449 215° Southwest 143 165 1,600  Level Aus ATC (RADAR)
Fri 08:02:05 PM -31.9349 115.7393 193° South 134 154 1,600  Level Aus ATC (RADAR)
Fri 08:02:40 PM -31.9563 115.7343 191° South 135 155 1,600  Level Aus ATC (RADAR)
Fri 08:03:40 PM -31.9935 115.7250 192° South 137 158 1,600  Level Aus ATC (RADAR)
Fri 08:04:35 PM -32.0279 115.7256 179° South 136 157 1,600  Level Aus ATC (RADAR)
Fri 08:05:20 PM -32.0546 115.7314 169° South 132 152 1,600  Level Aus ATC (RADAR)
Fri 08:05:55 PM -32.0739 115.7380 164° South 123 142 1,600  Level Aus ATC (RADAR)
Fri 08:08:08 PM -32.0857 115.8096 101° East 100 -455 Descending Aus ATC (Calculated)
Fri 08:09:13 PM -32.0916 115.8454 101° East 100  Level Aus ATC (Calculated)
Fri 08:11:00 PM -32.0975 115.8811 90° East  Level Estimated
Fri 08:12:00 PM -32.0975 115.8811 92° East  Level Estimated
Fri 08:13:00 PM -32.0975 115.8811 59° Northeast  Level Estimated
Fri 08:14:00 PM -32.0975 115.8811 92° East  Level Estimated
Fri 08:15:00 PM -32.0975 115.8811 92° East  Level Estimated
Fri 08:16:00 PM -32.0975 115.8811 92° East  Level Estimated

Login

Don't have an account? Register now (free) for customized features, flight alerts, and more!